createdAt,value
2022-10-22T00:01:10.349Z,531.33
2022-10-22T00:03:38.152Z,521.75
2022-10-22T00:06:06.463Z,526.17
2022-10-22T00:08:34.835Z,534.15
2022-10-22T00:11:10.649Z,544.72
2022-10-22T00:13:40.134Z,546.35
2022-10-22T00:16:08.955Z,520.05
2022-10-22T00:18:37.252Z,527.97
2022-10-22T00:21:06.127Z,539.28
2022-10-22T00:23:34.132Z,529.63
2022-10-22T00:26:02.387Z,532.78
2022-10-22T00:28:30.506Z,531.03
2022-10-22T00:31:01.029Z,523.17
2022-10-22T00:33:30.345Z,524.35
2022-10-22T00:35:58.299Z,515.65
2022-10-22T00:38:26.308Z,565.30
2022-10-22T00:40:54.202Z,547.00
2022-10-22T00:43:22.206Z,523.90
2022-10-22T00:45:50.372Z,521.65
2022-10-22T00:48:27.829Z,528.00
2022-10-22T00:50:59.255Z,553.45
2022-10-22T00:53:30.832Z,571.95
2022-10-22T00:55:59.199Z,567.58
2022-10-22T00:58:29.934Z,539.40
2022-10-22T01:00:58.544Z,525.72
2022-10-22T01:03:27.839Z,526.53
2022-10-22T01:05:58.392Z,565.15
2022-10-22T01:08:33.841Z,543.90
2022-10-22T01:11:12.737Z,523.60
2022-10-22T01:13:50.207Z,531.58
2022-10-22T01:16:23.275Z,516.42
2022-10-22T01:19:01.425Z,527.47
2022-10-22T01:21:35.869Z,545.33
2022-10-22T01:24:45.345Z,560.03
2022-10-22T01:27:30.457Z,537.13
2022-10-22T01:30:04.514Z,529.80
2022-10-22T01:32:38.157Z,529.83
2022-10-22T01:35:10.312Z,540.58
2022-10-22T01:37:43.259Z,508.67
2022-10-22T01:40:13.069Z,507.40
2022-10-22T01:42:40.908Z,531.95
2022-10-22T01:45:15.146Z,513.08
2022-10-22T01:47:55.491Z,535.58
2022-10-22T01:50:43.074Z,536.20
2022-10-22T01:53:26.709Z,554.55
2022-10-22T01:56:04.440Z,591.10
2022-10-22T01:58:41.928Z,578.97
2022-10-22T02:01:19.725Z,590.30
2022-10-22T02:03:57.489Z,601.00
2022-10-22T02:06:28.370Z,580.92
2022-10-22T02:08:57.934Z,579.67
2022-10-22T02:11:25.760Z,564.15
2022-10-22T02:13:57.637Z,558.67
2022-10-22T02:16:33.214Z,563.70
2022-10-22T02:19:04.291Z,580.38
2022-10-22T02:21:33.055Z,592.17
2022-10-22T02:24:01.162Z,605.28
2022-10-22T02:26:34.319Z,515.40
2022-10-22T02:29:08.214Z,447.95
2022-10-22T02:31:41.518Z,355.58
2022-10-22T02:34:14.590Z,386.00
2022-10-22T02:36:48.075Z,543.53
2022-10-22T02:39:20.178Z,537.10
2022-10-22T02:41:48.269Z,566.63
2022-10-22T02:44:16.117Z,587.50
2022-10-22T02:46:45.569Z,602.42
2022-10-22T02:49:13.373Z,574.25
2022-10-22T02:51:41.554Z,598.10
2022-10-22T02:54:09.676Z,607.65
2022-10-22T02:56:37.974Z,607.15
2022-10-22T02:59:05.832Z,602.83
2022-10-22T03:01:34.168Z,572.22
2022-10-22T03:04:03.901Z,587.70
2022-10-22T03:06:31.788Z,578.88
2022-10-22T03:08:59.710Z,538.80
2022-10-22T03:11:27.751Z,506.45
2022-10-22T03:13:55.906Z,526.70
2022-10-22T03:16:23.748Z,545.00
2022-10-22T03:18:51.718Z,563.70
2022-10-22T03:21:29.438Z,520.28
2022-10-22T03:23:58.189Z,516.75
2022-10-22T03:26:27.057Z,543.60
2022-10-22T03:28:55.550Z,577.42
2022-10-22T03:31:23.361Z,573.33
2022-10-22T03:33:51.170Z,526.97
2022-10-22T03:36:19.420Z,545.00
2022-10-22T03:38:49.105Z,567.78
2022-10-22T03:41:16.961Z,552.55
2022-10-22T03:43:49.607Z,523.33
2022-10-22T03:46:17.654Z,531.47
2022-10-22T03:48:45.497Z,557.50
2022-10-22T03:51:13.288Z,562.17
2022-10-22T03:53:41.131Z,561.53
2022-10-22T03:56:11.459Z,595.42
2022-10-22T03:58:40.754Z,607.63
2022-10-22T04:01:09.979Z,614.95
2022-10-22T04:03:38.292Z,615.13
2022-10-22T04:06:08.456Z,583.15
2022-10-22T04:08:36.524Z,563.33
2022-10-22T04:11:04.629Z,579.42
2022-10-22T04:13:33.869Z,603.85
2022-10-22T04:16:09.045Z,613.20
2022-10-22T04:18:37.328Z,604.63
2022-10-22T04:21:05.931Z,563.88
2022-10-22T04:23:33.959Z,545.80
2022-10-22T04:26:03.629Z,573.85
2022-10-22T04:28:31.557Z,608.58
2022-10-22T04:31:00.969Z,612.15
2022-10-22T04:33:29.125Z,603.03
2022-10-22T04:35:56.918Z,604.20
2022-10-22T04:38:24.838Z,608.80
2022-10-22T04:40:52.680Z,604.97
2022-10-22T04:43:20.547Z,620.65
2022-10-22T04:45:48.477Z,604.13
2022-10-22T04:48:17.759Z,604.28
2022-10-22T04:50:45.556Z,577.88
2022-10-22T04:53:13.617Z,573.08
2022-10-22T04:55:41.456Z,579.67
2022-10-22T04:58:09.478Z,557.35
2022-10-22T05:00:37.539Z,570.65
2022-10-22T05:03:05.590Z,590.13
2022-10-22T05:05:35.370Z,604.08
2022-10-22T05:08:03.356Z,601.67
2022-10-22T05:10:31.266Z,606.92
2022-10-22T05:12:59.113Z,602.85
2022-10-22T05:15:27.063Z,598.15
2022-10-22T05:17:54.837Z,567.83
2022-10-22T05:20:22.667Z,575.55
2022-10-22T05:22:51.962Z,544.55
2022-10-22T05:25:19.813Z,542.78
2022-10-22T05:27:50.503Z,559.70
2022-10-22T05:30:18.333Z,524.95
2022-10-22T05:32:46.140Z,566.83
2022-10-22T05:35:14.000Z,582.08
2022-10-22T05:37:42.311Z,548.97
2022-10-22T05:40:26.601Z,585.60
2022-10-22T05:43:00.374Z,590.58
2022-10-22T05:45:28.504Z,589.28
2022-10-22T05:47:56.760Z,602.47
2022-10-22T05:50:24.632Z,614.22
2022-10-22T05:52:52.581Z,613.55
2022-10-22T05:55:22.209Z,616.80
2022-10-22T05:57:50.317Z,619.30
2022-10-22T06:00:18.821Z,621.78
2022-10-22T06:02:51.024Z,615.10
2022-10-22T06:05:18.980Z,614.38
2022-10-22T06:07:47.269Z,614.95
2022-10-22T06:10:18.181Z,605.58
2022-10-22T06:12:48.635Z,603.63
2022-10-22T06:15:18.941Z,599.22
2022-10-22T06:17:47.424Z,592.90
2022-10-22T06:20:16.396Z,583.88
2022-10-22T06:22:44.267Z,597.47
2022-10-22T06:25:12.633Z,596.15
2022-10-22T06:27:40.689Z,576.95
2022-10-22T06:30:11.193Z,486.00
2022-10-22T06:32:39.244Z,421.10
2022-10-22T06:35:08.299Z,423.13
2022-10-22T06:37:36.248Z,430.98
2022-10-22T06:40:04.305Z,386.48
2022-10-22T06:42:32.084Z,370.48
2022-10-22T06:47:37.268Z,432.73
2022-10-22T06:50:06.075Z,462.67
2022-10-22T06:52:33.915Z,480.33
2022-10-22T06:55:02.289Z,528.53
2022-10-22T06:57:31.225Z,508.80
2022-10-22T06:59:59.060Z,501.98
2022-10-22T07:02:26.852Z,469.60
2022-10-22T07:04:56.309Z,448.38
2022-10-22T07:07:24.391Z,459.25
2022-10-22T07:09:52.247Z,496.58
2022-10-22T07:12:20.138Z,512.92
2022-10-22T07:14:48.196Z,527.28
2022-10-22T07:17:16.272Z,503.42
2022-10-22T07:19:45.289Z,513.58
2022-10-22T07:22:16.805Z,530.30
2022-10-22T07:24:44.739Z,543.92
2022-10-22T07:27:12.641Z,527.40
2022-10-22T07:29:40.453Z,509.48
2022-10-22T07:32:08.623Z,505.88
2022-10-22T07:34:38.427Z,531.58
2022-10-22T07:37:08.390Z,522.20
2022-10-22T07:39:37.848Z,486.30
2022-10-22T07:42:05.716Z,500.73
2022-10-22T07:44:33.519Z,500.92
2022-10-22T07:47:01.315Z,495.65
2022-10-22T07:49:29.262Z,523.78
2022-10-22T07:51:57.826Z,550.65
2022-10-22T07:54:25.738Z,538.17
2022-10-22T07:56:55.106Z,556.35
2022-10-22T07:59:22.998Z,569.53
2022-10-22T08:01:50.998Z,579.72
2022-10-22T08:04:18.775Z,580.80
2022-10-22T08:06:47.374Z,551.15
2022-10-22T08:09:15.974Z,552.83
2022-10-22T08:11:43.816Z,557.13
2022-10-22T08:14:13.101Z,557.97
2022-10-22T08:16:41.347Z,582.97
2022-10-22T08:19:09.161Z,597.70
2022-10-22T08:21:37.390Z,584.00
2022-10-22T08:26:33.896Z,617.40
2022-10-22T08:29:03.470Z,619.20
2022-10-22T08:31:32.690Z,613.55
2022-10-22T08:34:00.558Z,612.53
2022-10-22T08:36:28.683Z,611.45
2022-10-22T08:38:56.670Z,622.35
2022-10-22T08:41:25.873Z,611.55
2022-10-22T08:44:25.945Z,614.80
2022-10-22T08:47:20.042Z,608.42
2022-10-22T08:49:50.516Z,601.88
2022-10-22T08:52:20.967Z,608.28
2022-10-22T08:54:53.866Z,613.97
2022-10-22T08:57:39.868Z,591.00
2022-10-22T09:00:29.933Z,571.50
2022-10-22T09:03:20.263Z,573.60
2022-10-22T09:05:57.245Z,577.83
2022-10-22T09:08:25.217Z,602.08
2022-10-22T09:11:03.493Z,578.33
2022-10-22T09:13:31.550Z,563.92
2022-10-22T09:16:12.684Z,587.47
2022-10-22T09:18:48.417Z,591.95
2022-10-22T09:21:27.635Z,584.00
2022-10-22T09:24:10.874Z,558.00
2022-10-22T09:26:41.423Z,539.42
2022-10-22T09:29:19.215Z,496.83
2022-10-22T09:31:47.621Z,511.02
2022-10-22T09:34:22.242Z,527.25
2022-10-22T09:36:59.764Z,559.85
2022-10-22T09:39:29.585Z,558.95
2022-10-22T09:41:57.412Z,554.22
2022-10-22T09:44:25.312Z,546.33
2022-10-22T09:46:53.469Z,529.42
2022-10-22T09:49:27.909Z,550.80
2022-10-22T09:51:57.830Z,544.80
2022-10-22T09:54:27.809Z,528.38
2022-10-22T09:56:58.808Z,509.58
2022-10-22T09:59:30.792Z,534.15
2022-10-22T10:02:13.535Z,523.15
2022-10-22T10:04:51.925Z,514.13
2022-10-22T10:07:23.952Z,477.00
2022-10-22T10:09:53.622Z,453.95
2022-10-22T10:12:34.678Z,453.70
2022-10-22T10:15:14.337Z,450.77
2022-10-22T10:17:51.986Z,434.70
2022-10-22T10:20:35.600Z,385.10
2022-10-22T10:23:09.480Z,384.02
2022-10-22T10:25:44.807Z,342.00
2022-10-22T10:28:22.389Z,345.05
2022-10-22T10:30:58.840Z,351.73
2022-10-22T10:33:36.832Z,415.10
2022-10-22T10:36:13.468Z,483.63
2022-10-22T10:38:53.660Z,509.40
2022-10-22T10:41:34.003Z,530.50
2022-10-22T10:44:21.503Z,520.58
2022-10-22T10:46:56.188Z,499.98
2022-10-22T10:49:26.741Z,508.80
2022-10-22T10:52:02.855Z,514.50
2022-10-22T10:54:45.781Z,554.80
2022-10-22T10:57:23.893Z,561.08
2022-10-22T11:00:03.076Z,604.08
2022-10-22T11:03:17.025Z,620.67
2022-10-22T11:05:49.675Z,621.83
2022-10-22T11:08:22.408Z,612.03
2022-10-22T11:10:53.193Z,612.70
2022-10-22T11:13:28.478Z,618.58
2022-10-22T11:16:02.080Z,628.45
2022-10-22T11:18:35.720Z,614.33
2022-10-22T11:21:19.228Z,617.88
2022-10-22T11:23:53.527Z,618.67
2022-10-22T11:26:37.752Z,625.40
2022-10-22T11:29:08.357Z,597.17
2022-10-22T11:31:36.803Z,593.83
2022-10-22T11:34:31.998Z,594.03
2022-10-22T11:37:00.952Z,616.85
2022-10-22T11:39:38.872Z,608.58
2022-10-22T11:42:10.678Z,609.33
2022-10-22T11:44:49.427Z,600.08
2022-10-22T11:47:21.110Z,618.95
2022-10-22T11:49:59.004Z,600.15
2022-10-22T11:52:39.488Z,616.97
2022-10-22T11:55:45.958Z,614.28
2022-10-22T11:58:33.105Z,620.38
2022-10-22T12:01:22.658Z,602.17
2022-10-22T12:03:52.605Z,593.42
2022-10-22T12:06:23.322Z,572.58
2022-10-22T12:09:03.728Z,602.40
2022-10-22T12:11:41.492Z,594.35
2022-10-22T12:14:20.589Z,579.67
2022-10-22T12:16:57.247Z,557.80
2022-10-22T12:19:29.266Z,544.55
2022-10-22T12:22:01.157Z,559.22
2022-10-22T12:24:33.748Z,579.95
2022-10-22T12:27:03.090Z,583.67
2022-10-22T12:29:33.894Z,578.88
2022-10-22T12:32:04.896Z,620.15
2022-10-22T12:34:32.686Z,605.97
2022-10-22T12:37:00.589Z,589.00
2022-10-22T12:39:30.040Z,619.83
2022-10-22T12:41:58.159Z,630.63
2022-10-22T12:44:27.332Z,616.13
2022-10-22T12:46:57.052Z,631.55
2022-10-22T12:49:30.490Z,626.90
2022-10-22T12:52:03.014Z,620.55
2022-10-22T12:54:33.369Z,623.30
2022-10-22T12:57:02.045Z,639.00
2022-10-22T12:59:36.644Z,623.92
2022-10-22T13:02:16.241Z,629.25
2022-10-22T13:04:44.152Z,635.38
2022-10-22T13:07:22.115Z,639.80
2022-10-22T13:09:59.826Z,636.80
2022-10-22T13:12:29.434Z,637.88
2022-10-22T13:14:58.632Z,643.08
2022-10-22T13:17:41.775Z,636.70
2022-10-22T13:20:21.779Z,636.90
2022-10-22T13:23:00.313Z,639.28
2022-10-22T13:25:31.772Z,634.40
2022-10-22T13:28:02.027Z,656.17
2022-10-22T13:30:33.973Z,632.03
2022-10-22T13:33:04.327Z,638.50
2022-10-22T13:35:34.861Z,648.50
2022-10-22T13:38:03.244Z,623.72
2022-10-22T13:40:31.394Z,630.17
2022-10-22T13:42:59.520Z,617.95
2022-10-22T13:45:28.293Z,607.92
2022-10-22T13:47:57.627Z,592.40
2022-10-22T13:50:25.436Z,611.33
2022-10-22T13:52:55.751Z,606.75
2022-10-22T13:55:26.716Z,628.45
2022-10-22T13:57:56.319Z,621.53
2022-10-22T14:00:24.881Z,615.08
2022-10-22T14:02:56.164Z,615.00
2022-10-22T14:05:25.372Z,618.55
2022-10-22T14:07:53.695Z,615.22
2022-10-22T14:10:23.805Z,574.00
2022-10-22T14:12:53.642Z,534.38
2022-10-22T14:15:23.863Z,544.05
2022-10-22T14:17:56.903Z,571.92
2022-10-22T14:20:29.296Z,553.33
2022-10-22T14:23:01.570Z,504.27
2022-10-22T14:25:31.473Z,439.48
2022-10-22T14:27:59.325Z,449.50
2022-10-22T14:30:30.388Z,458.20
2022-10-22T14:32:59.288Z,449.52
2022-10-22T14:35:28.620Z,458.60
2022-10-22T14:38:03.817Z,415.98
2022-10-22T14:40:32.197Z,414.00
2022-10-22T14:43:00.304Z,439.35
2022-10-22T14:45:28.698Z,417.58
2022-10-22T14:48:01.968Z,453.17
2022-10-22T14:50:31.123Z,476.20
2022-10-22T14:52:59.865Z,477.30
2022-10-22T14:55:29.007Z,479.48
2022-10-22T14:57:57.994Z,472.10
2022-10-22T15:01:13.284Z,450.13
2022-10-22T15:03:41.269Z,462.55
2022-10-22T15:06:10.596Z,461.00
2022-10-22T15:08:39.694Z,434.27
2022-10-22T15:11:11.281Z,399.23
2022-10-22T15:13:39.444Z,473.42
2022-10-22T15:16:13.160Z,487.42
2022-10-22T15:18:40.969Z,458.50
2022-10-22T15:21:19.523Z,424.02
2022-10-22T15:23:48.172Z,456.85
2022-10-22T15:26:25.429Z,452.83
2022-10-22T15:28:53.240Z,473.35
2022-10-22T15:31:45.338Z,473.23
2022-10-22T15:34:13.513Z,464.52
2022-10-22T15:36:45.413Z,457.80
2022-10-22T15:39:13.208Z,447.92
2022-10-22T15:41:41.049Z,422.70
2022-10-22T15:44:09.144Z,452.25
2022-10-22T15:46:36.986Z,462.27
2022-10-22T15:49:04.820Z,473.83
2022-10-22T15:51:32.855Z,506.58
2022-10-22T15:54:04.339Z,541.95
2022-10-22T15:56:34.750Z,538.50
2022-10-22T15:59:06.370Z,546.92
2022-10-22T16:01:35.669Z,561.65
2022-10-22T16:04:03.770Z,574.70
2022-10-22T16:06:33.821Z,560.67
2022-10-22T16:09:05.782Z,552.50
2022-10-22T16:11:34.813Z,526.00
2022-10-22T16:14:02.887Z,527.20
2022-10-22T16:16:32.409Z,505.50
2022-10-22T16:19:00.360Z,509.67
2022-10-22T16:21:28.883Z,531.15
2022-10-22T16:23:56.746Z,520.35
2022-10-22T16:26:25.946Z,510.20
2022-10-22T16:28:53.776Z,531.90
2022-10-22T16:31:21.559Z,536.90
2022-10-22T16:33:50.401Z,518.95
2022-10-22T16:36:20.273Z,547.17
2022-10-22T16:38:49.569Z,561.63
2022-10-22T16:41:19.505Z,532.67
2022-10-22T16:43:50.791Z,538.00
2022-10-22T16:46:20.401Z,550.70
2022-10-22T16:48:49.207Z,544.92
2022-10-22T16:51:19.797Z,543.20
2022-10-22T16:53:48.000Z,543.97
2022-10-22T16:56:17.227Z,519.90
2022-10-22T16:58:48.157Z,530.13
2022-10-22T17:01:18.420Z,554.80
2022-10-22T17:03:47.332Z,590.38
2022-10-22T17:06:17.718Z,592.30
2022-10-22T17:08:45.677Z,577.35
2022-10-22T17:11:17.153Z,584.58
2022-10-22T17:13:46.867Z,581.38
2022-10-22T17:16:18.292Z,599.80
2022-10-22T17:18:53.475Z,599.72
2022-10-22T17:21:22.459Z,610.88
2022-10-22T17:23:51.835Z,603.72
2022-10-22T17:26:22.768Z,554.67
2022-10-22T17:28:51.258Z,568.83
2022-10-22T17:31:25.298Z,539.85
2022-10-22T17:33:54.963Z,534.97
2022-10-22T17:36:25.693Z,539.95
2022-10-22T17:38:55.321Z,544.50
2022-10-22T17:41:26.414Z,547.55
2022-10-22T17:43:54.357Z,551.95
2022-10-22T17:46:25.014Z,576.25
2022-10-22T17:48:53.846Z,572.63
2022-10-22T17:51:22.744Z,535.45
2022-10-22T17:53:52.818Z,512.60
2022-10-22T17:56:23.067Z,515.63
2022-10-22T17:58:52.997Z,518.97
2022-10-22T18:01:29.869Z,498.40
2022-10-22T18:04:01.212Z,457.33
2022-10-22T18:06:29.821Z,425.73
2022-10-22T18:08:57.742Z,384.75
2022-10-22T18:11:30.028Z,372.80
2022-10-22T18:14:02.645Z,442.20
2022-10-22T18:16:32.475Z,426.35
2022-10-22T18:19:12.651Z,459.75
2022-10-22T18:21:43.032Z,482.23
2022-10-22T18:24:11.461Z,465.02
2022-10-22T18:26:39.333Z,481.70
2022-10-22T18:29:11.054Z,485.27
2022-10-22T18:31:40.601Z,487.50
2022-10-22T18:34:08.480Z,503.70
2022-10-22T18:36:36.330Z,488.45
2022-10-22T18:39:06.041Z,489.60
2022-10-22T18:41:35.955Z,499.38
2022-10-22T18:44:06.293Z,533.50
2022-10-22T18:46:41.157Z,503.30
2022-10-22T18:49:19.195Z,513.50
2022-10-22T18:51:48.832Z,519.75
2022-10-22T18:54:23.116Z,500.05
2022-10-22T18:56:51.999Z,477.90
2022-10-22T18:59:24.349Z,517.03
2022-10-22T19:01:57.634Z,510.25
2022-10-22T19:04:30.962Z,504.17
2022-10-22T19:07:00.279Z,550.97
2022-10-22T19:09:36.754Z,601.60
2022-10-22T19:12:06.989Z,607.15
2022-10-22T19:14:34.775Z,611.35
2022-10-22T19:17:02.933Z,617.13
2022-10-22T19:19:36.174Z,618.58
2022-10-22T19:22:04.682Z,625.13
2022-10-22T19:24:34.567Z,622.10
2022-10-22T19:27:02.445Z,617.60
2022-10-22T19:29:32.770Z,603.72
2022-10-22T19:32:00.926Z,615.65
2022-10-22T19:34:28.770Z,615.45
2022-10-22T19:37:06.436Z,615.28
2022-10-22T19:39:34.678Z,642.47
2022-10-22T19:42:06.514Z,629.88
2022-10-22T19:44:34.496Z,614.25
2022-10-22T19:47:08.098Z,616.47
2022-10-22T19:49:36.085Z,603.20
2022-10-22T19:52:08.327Z,591.50
2022-10-22T19:54:40.761Z,602.88
2022-10-22T19:57:09.207Z,590.97
2022-10-22T19:59:37.213Z,618.65
2022-10-22T20:02:05.412Z,613.05
2022-10-22T20:04:34.215Z,605.40
2022-10-22T20:07:01.993Z,586.70
2022-10-22T20:09:31.173Z,579.00
2022-10-22T20:11:59.303Z,545.92
2022-10-22T20:14:30.185Z,551.33
2022-10-22T20:16:58.221Z,543.55
2022-10-22T20:19:29.286Z,546.30
2022-10-22T20:21:57.133Z,531.05
2022-10-22T20:24:24.902Z,557.72
2022-10-22T20:26:54.643Z,558.30
2022-10-22T20:29:22.556Z,524.22
2022-10-22T20:31:50.825Z,547.83
2022-10-22T20:34:18.792Z,517.67
2022-10-22T20:36:47.243Z,523.63
2022-10-22T20:39:16.624Z,541.17
2022-10-22T20:41:47.302Z,548.38
2022-10-22T20:44:18.497Z,546.88
2022-10-22T20:46:46.836Z,532.33
2022-10-22T20:49:18.921Z,535.22
2022-10-22T20:51:59.284Z,480.02
2022-10-22T20:54:29.089Z,505.23
2022-10-22T20:56:59.374Z,506.90
2022-10-22T20:59:32.977Z,515.22
2022-10-22T21:02:04.958Z,513.97
2022-10-22T21:04:32.907Z,517.95
2022-10-22T21:07:02.889Z,514.75
2022-10-22T21:09:30.844Z,500.10
2022-10-22T21:12:04.406Z,503.67
2022-10-22T21:14:40.740Z,488.63
2022-10-22T21:17:11.472Z,497.50
2022-10-22T21:19:41.212Z,512.10
2022-10-22T21:22:09.140Z,501.27
2022-10-22T21:24:37.167Z,480.73
2022-10-22T21:27:07.144Z,500.83
2022-10-22T21:29:37.540Z,503.67
2022-10-22T21:32:13.289Z,475.17
2022-10-22T21:35:07.831Z,478.45
2022-10-22T21:37:54.577Z,468.77
2022-10-22T21:40:55.150Z,457.55
2022-10-22T21:43:54.203Z,413.90
2022-10-22T21:46:44.426Z,401.17
2022-10-22T21:49:14.384Z,421.45
2022-10-22T21:51:44.227Z,454.10
2022-10-22T21:54:13.033Z,484.23
2022-10-22T21:56:41.213Z,493.10
2022-10-22T21:59:09.691Z,512.67
2022-10-22T22:01:39.027Z,489.00
2022-10-22T22:04:07.500Z,516.42
2022-10-22T22:06:36.173Z,537.42
2022-10-22T22:09:05.503Z,504.55
2022-10-22T22:11:34.267Z,486.33
2022-10-22T22:14:02.411Z,493.38
2022-10-22T22:16:33.525Z,468.77
2022-10-22T22:19:05.719Z,496.58
2022-10-22T22:21:34.632Z,520.67
2022-10-22T22:24:02.443Z,547.72
2022-10-22T22:26:31.025Z,565.47
2022-10-22T22:29:00.381Z,579.25
2022-10-22T22:31:30.364Z,592.70
2022-10-22T22:34:04.878Z,582.15
2022-10-22T22:36:35.508Z,595.97
2022-10-22T22:39:04.793Z,594.13
2022-10-22T22:41:33.229Z,573.53
2022-10-22T22:44:01.383Z,556.50
2022-10-22T22:46:29.875Z,529.88
2022-10-22T22:48:57.661Z,564.67
2022-10-22T22:51:26.852Z,548.33
2022-10-22T22:53:54.711Z,508.10
2022-10-22T22:56:24.539Z,497.60
2022-10-22T22:58:53.059Z,513.55
2022-10-22T23:01:23.151Z,541.53
2022-10-22T23:03:56.152Z,528.13
2022-10-22T23:06:26.808Z,426.63
2022-10-22T23:08:55.551Z,468.17
2022-10-22T23:11:25.367Z,467.77
2022-10-22T23:13:54.434Z,417.77
2022-10-22T23:16:25.037Z,418.83
2022-10-22T23:18:54.527Z,448.10
2022-10-22T23:21:24.947Z,412.70
2022-10-22T23:23:55.722Z,441.33
2022-10-22T23:26:25.845Z,449.58
2022-10-22T23:28:53.688Z,501.65
2022-10-22T23:31:22.861Z,523.63
2022-10-22T23:33:50.881Z,468.52
2022-10-22T23:36:19.065Z,465.77
2022-10-22T23:38:47.243Z,487.73
2022-10-22T23:41:16.416Z,465.77
2022-10-22T23:43:44.449Z,464.73
2022-10-22T23:46:14.941Z,475.75
2022-10-22T23:48:43.100Z,458.60
2022-10-22T23:51:13.435Z,479.52
2022-10-22T23:53:42.521Z,454.88
2022-10-22T23:56:14.402Z,495.95
2022-10-22T23:58:44.096Z,464.50
